createdAt,value
2018-05-08T00:01:37.176Z,93.10
2018-05-08T00:04:04.668Z,93.10
2018-05-08T00:06:32.187Z,92.80
2018-05-08T00:09:00.449Z,92.10
2018-05-08T00:11:28.560Z,92.00
2018-05-08T00:13:56.841Z,92.00
2018-05-08T00:16:25.112Z,92.10
2018-05-08T00:18:52.634Z,92.10
2018-05-08T00:21:20.164Z,92.40
2018-05-08T00:23:48.432Z,92.30
2018-05-08T00:26:15.979Z,92.40
2018-05-08T00:28:44.301Z,92.50
2018-05-08T00:31:11.816Z,92.40
2018-05-08T00:33:39.342Z,92.40
2018-05-08T00:36:06.863Z,92.40
2018-05-08T00:38:34.385Z,92.50
2018-05-08T00:41:01.892Z,92.70
2018-05-08T00:43:29.409Z,92.70
2018-05-08T00:45:56.946Z,92.90
2018-05-08T00:48:24.471Z,92.50
2018-05-08T00:50:51.987Z,92.50
2018-05-08T00:53:19.504Z,92.30
2018-05-08T00:55:47.032Z,92.50
2018-05-08T00:58:14.569Z,92.20
2018-05-08T01:00:42.855Z,92.50
2018-05-08T01:03:11.127Z,93.10
2018-05-08T01:05:38.651Z,93.00
2018-05-08T01:08:06.175Z,93.20
2018-05-08T01:10:34.464Z,94.70
2018-05-08T01:13:01.977Z,94.50
2018-05-08T01:15:29.459Z,95.10
2018-05-08T01:17:57.075Z,95.50
2018-05-08T01:20:24.594Z,96.70
2018-05-08T01:22:53.304Z,97.00
2018-05-08T01:28:16.016Z,98.00
2018-05-08T01:30:43.523Z,99.00
2018-05-08T01:33:11.788Z,99.70
2018-05-08T01:35:39.296Z,99.60
2018-05-08T01:38:06.821Z,99.90
2018-05-08T01:40:34.334Z,99.50
2018-05-08T01:43:01.905Z,99.90
2018-05-08T01:45:29.398Z,99.90
2018-05-08T01:47:56.929Z,99.90
2018-05-08T01:50:24.411Z,99.90
2018-05-08T01:52:52.675Z,99.90
2018-05-08T01:55:20.164Z,99.90
2018-05-08T01:57:48.438Z,99.90
2018-05-08T02:00:15.948Z,99.90
2018-05-08T02:02:43.465Z,99.90
2018-05-08T02:05:10.979Z,99.90
2018-05-08T02:07:39.263Z,99.90
2018-05-08T02:10:06.739Z,99.90
2018-05-08T02:12:34.237Z,99.90
2018-05-08T02:15:01.759Z,99.90
2018-05-08T02:17:30.010Z,99.90
2018-05-08T02:19:57.528Z,99.90
2018-05-08T02:22:25.806Z,99.90
2018-05-08T02:24:54.073Z,99.90
2018-05-08T02:27:21.570Z,99.90
2018-05-08T02:29:49.836Z,99.90
2018-05-08T02:32:17.331Z,99.90
2018-05-08T02:34:46.267Z,99.90
2018-05-08T02:37:13.755Z,99.90
2018-05-08T02:39:41.259Z,99.90
2018-05-08T02:42:08.755Z,99.90
2018-05-08T02:44:37.007Z,99.90
2018-05-08T02:47:04.503Z,99.90
2018-05-08T02:49:32.766Z,99.70
2018-05-08T02:52:00.300Z,99.70
2018-05-08T02:54:27.791Z,99.90
2018-05-08T02:56:55.330Z,99.90
2018-05-08T02:59:23.576Z,99.90
2018-05-08T03:01:51.059Z,99.90
2018-05-08T03:04:19.340Z,99.90
2018-05-08T03:06:46.831Z,99.90
2018-05-08T03:09:14.343Z,99.90
2018-05-08T03:11:41.831Z,99.90
2018-05-08T03:14:09.327Z,99.90
2018-05-08T03:16:37.617Z,99.90
2018-05-08T03:19:05.904Z,99.90
2018-05-08T03:21:34.190Z,99.90
2018-05-08T03:24:02.491Z,99.90
2018-05-08T03:26:30.767Z,99.90
2018-05-08T03:28:59.047Z,99.90
2018-05-08T03:31:26.629Z,99.90
2018-05-08T03:33:54.118Z,99.90
2018-05-08T03:36:21.608Z,99.90
2018-05-08T03:39:08.042Z,99.90
2018-05-08T03:41:47.235Z,99.90
2018-05-08T03:47:13.058Z,99.90
2018-05-08T03:49:40.611Z,99.90
2018-05-08T03:55:17.671Z,99.90
2018-05-08T03:57:45.175Z,99.90
2018-05-08T04:00:26.164Z,99.90
2018-05-08T04:03:06.170Z,99.90
2018-05-08T04:05:45.604Z,99.90
2018-05-08T04:08:21.220Z,99.90
2018-05-08T04:10:49.404Z,99.90
2018-05-08T04:13:16.944Z,99.90
2018-05-08T04:15:44.455Z,99.90
2018-05-08T04:18:11.948Z,99.90
2018-05-08T04:20:40.231Z,99.90
2018-05-08T04:23:08.528Z,99.90
2018-05-08T04:25:36.815Z,99.90
2018-05-08T04:28:05.079Z,99.90
2018-05-08T04:30:32.626Z,99.90
2018-05-08T04:33:00.134Z,99.90
2018-05-08T04:35:28.456Z,99.90
2018-05-08T04:37:55.949Z,99.90
2018-05-08T04:40:23.480Z,99.90
2018-05-08T04:42:51.744Z,99.90
2018-05-08T04:45:19.247Z,99.90
2018-05-08T04:47:46.940Z,99.90
2018-05-08T04:50:14.490Z,99.90
2018-05-08T04:52:41.999Z,99.90
2018-05-08T04:55:09.523Z,99.90
2018-05-08T04:57:37.802Z,99.90
2018-05-08T05:00:06.079Z,99.90
2018-05-08T05:02:33.595Z,99.90
2018-05-08T05:05:01.119Z,99.90
2018-05-08T05:07:38.426Z,99.90
2018-05-08T05:10:05.929Z,99.90
2018-05-08T05:12:33.461Z,99.90
2018-05-08T05:15:03.653Z,99.90
2018-05-08T05:17:31.143Z,99.90
2018-05-08T05:19:59.171Z,99.90
2018-05-08T05:22:26.684Z,99.90
2018-05-08T05:24:54.200Z,99.90
2018-05-08T05:27:40.179Z,99.40
2018-05-08T05:30:07.687Z,99.30
2018-05-08T05:32:35.937Z,98.90
2018-05-08T05:35:03.456Z,98.80
2018-05-08T05:37:30.960Z,99.00
2018-05-08T05:40:00.833Z,98.70
2018-05-08T05:42:28.317Z,98.60
2018-05-08T05:44:57.245Z,97.40
2018-05-08T05:47:24.747Z,97.40
2018-05-08T05:49:52.259Z,97.20
2018-05-08T05:52:20.547Z,96.80
2018-05-08T05:54:48.820Z,96.00
2018-05-08T05:57:16.324Z,96.00
2018-05-08T05:59:43.859Z,95.60
2018-05-08T06:02:11.368Z,95.40
2018-05-08T06:04:38.869Z,94.30
2018-05-08T06:07:06.422Z,94.50
2018-05-08T06:09:33.919Z,94.00
2018-05-08T06:12:02.159Z,93.50
2018-05-08T06:14:30.388Z,90.60
2018-05-08T06:17:01.114Z,90.60
2018-05-08T06:19:28.614Z,88.90
2018-05-08T06:21:56.127Z,88.10
2018-05-08T06:24:24.400Z,85.70
2018-05-08T06:26:51.915Z,85.50
2018-05-08T06:29:19.419Z,85.70
2018-05-08T06:31:46.927Z,83.40
2018-05-08T06:34:15.215Z,76.50
2018-05-08T06:36:43.518Z,69.00
2018-05-08T06:39:11.047Z,69.00
2018-05-08T06:41:38.513Z,69.40
2018-05-08T06:44:06.043Z,66.00
2018-05-08T06:46:33.528Z,63.40
2018-05-08T06:49:01.047Z,62.30
2018-05-08T06:51:28.618Z,65.80
2018-05-08T06:53:56.121Z,61.10
2018-05-08T06:56:23.615Z,58.10
2018-05-08T06:58:51.911Z,56.60
2018-05-08T07:01:19.609Z,59.20
2018-05-08T07:03:47.100Z,54.10
2018-05-08T07:06:21.294Z,48.20
2018-05-08T07:08:48.778Z,48.20
2018-05-08T07:11:16.311Z,52.20
2018-05-08T07:13:43.811Z,57.20
2018-05-08T07:16:11.401Z,54.80
2018-05-08T07:18:39.558Z,57.60
2018-05-08T07:21:07.047Z,58.20
2018-05-08T07:23:34.538Z,57.50
2018-05-08T07:26:02.807Z,50.20
2018-05-08T07:28:31.835Z,48.60
2018-05-08T07:31:00.841Z,51.70
2018-05-08T07:33:28.360Z,51.50
2018-05-08T07:35:55.891Z,54.50
2018-05-08T07:38:23.500Z,50.90
2018-05-08T07:40:50.948Z,50.70
2018-05-08T07:43:18.475Z,52.70
2018-05-08T07:45:45.959Z,50.30
2018-05-08T07:48:14.236Z,51.10
2018-05-08T07:50:41.839Z,51.10
2018-05-08T07:53:09.334Z,51.40
2018-05-08T07:55:36.847Z,53.40
2018-05-08T07:58:04.355Z,49.00
2018-05-08T08:00:31.910Z,44.30
2018-05-08T08:02:59.363Z,41.00
2018-05-08T08:05:26.877Z,46.80
2018-05-08T08:07:54.375Z,43.50
2018-05-08T08:10:21.880Z,41.90
2018-05-08T08:16:03.647Z,40.70
2018-05-08T08:18:31.187Z,43.50
2018-05-08T08:20:58.644Z,44.20
2018-05-08T08:23:26.949Z,42.00
2018-05-08T08:25:55.319Z,42.10
2018-05-08T08:28:22.863Z,40.60
2018-05-08T08:30:50.362Z,44.40
2018-05-08T08:33:17.888Z,42.60
2018-05-08T08:35:45.415Z,42.60
2018-05-08T08:38:12.967Z,42.00
2018-05-08T08:40:40.512Z,43.50
2018-05-08T08:46:00.959Z,39.10
2018-05-08T08:48:28.464Z,38.70
2018-05-08T08:50:55.991Z,38.80
2018-05-08T08:53:23.487Z,41.30
2018-05-08T08:55:50.973Z,41.20
2018-05-08T08:58:18.552Z,43.50
2018-05-08T09:00:46.092Z,42.70
2018-05-08T09:03:13.614Z,39.70
2018-05-08T09:05:41.900Z,40.90
2018-05-08T09:08:10.175Z,42.30
2018-05-08T09:10:37.660Z,41.60
2018-05-08T09:13:05.933Z,37.00
2018-05-08T09:15:33.507Z,36.90
2018-05-08T09:18:01.007Z,33.60
2018-05-08T09:20:28.495Z,38.70
2018-05-08T09:22:55.985Z,42.20
2018-05-08T09:25:23.540Z,39.90
2018-05-08T09:27:51.092Z,39.90
2018-05-08T09:30:18.621Z,38.00
2018-05-08T09:32:46.154Z,35.60
2018-05-08T09:35:13.627Z,37.40
2018-05-08T09:37:41.123Z,37.30
2018-05-08T09:40:08.623Z,37.50
2018-05-08T09:42:37.209Z,39.70
2018-05-08T09:45:04.692Z,39.70
2018-05-08T09:47:32.967Z,40.90
2018-05-08T09:50:00.446Z,40.90
2018-05-08T09:52:28.707Z,35.50
2018-05-08T09:54:56.239Z,35.40
2018-05-08T09:57:23.788Z,35.50
2018-05-08T09:59:51.335Z,32.00
2018-05-08T10:02:18.859Z,36.70
2018-05-08T10:04:46.351Z,37.40
2018-05-08T10:07:13.864Z,40.40
2018-05-08T10:09:42.119Z,36.90
2018-05-08T10:12:09.628Z,36.80
2018-05-08T10:14:37.887Z,35.90
2018-05-08T10:17:05.379Z,35.90
2018-05-08T10:19:33.644Z,34.20
2018-05-08T10:22:01.567Z,34.10
2018-05-08T10:24:31.980Z,34.00
2018-05-08T10:26:59.468Z,29.70
2018-05-08T10:29:27.723Z,33.60
2018-05-08T10:31:55.207Z,33.60
2018-05-08T10:34:22.703Z,35.30
2018-05-08T10:36:50.195Z,30.20
2018-05-08T10:39:17.757Z,30.90
2018-05-08T10:41:45.206Z,32.70
2018-05-08T10:44:14.347Z,33.30
2018-05-08T10:46:41.851Z,33.20
2018-05-08T10:49:09.374Z,31.20
2018-05-08T10:51:36.871Z,33.40
2018-05-08T10:54:04.424Z,32.30
2018-05-08T10:56:31.960Z,35.10
2018-05-08T10:59:00.248Z,36.40
2018-05-08T11:01:28.531Z,30.70
2018-05-08T11:03:56.037Z,30.50
2018-05-08T11:06:23.559Z,33.60
2018-05-08T11:08:51.061Z,31.90
2018-05-08T11:11:19.401Z,36.70
2018-05-08T11:13:46.927Z,36.70
2018-05-08T11:16:14.447Z,32.50
2018-05-08T11:18:41.952Z,34.00
2018-05-08T11:21:10.243Z,30.90
2018-05-08T11:23:38.560Z,29.50
2018-05-08T11:26:06.057Z,29.40
2018-05-08T11:28:33.550Z,30.90
2018-05-08T11:31:01.044Z,34.30
2018-05-08T11:33:29.320Z,36.50
2018-05-08T11:35:56.819Z,36.50
2018-05-08T11:38:28.191Z,35.20
2018-05-08T11:40:55.679Z,34.20
2018-05-08T11:43:23.202Z,30.50
2018-05-08T11:45:52.693Z,31.90
2018-05-08T11:48:20.224Z,31.80
2018-05-08T11:50:47.723Z,32.50
2018-05-08T11:53:15.272Z,34.70
2018-05-08T11:55:42.857Z,33.40
2018-05-08T11:58:11.102Z,33.10
2018-05-08T12:00:38.647Z,33.90
2018-05-08T12:06:05.503Z,30.50
2018-05-08T12:08:33.039Z,30.40
2018-05-08T12:11:00.553Z,33.40
2018-05-08T12:13:28.099Z,34.70
2018-05-08T12:15:55.608Z,34.40
2018-05-08T12:18:23.191Z,31.30
2018-05-08T12:20:50.707Z,33.70
2018-05-08T12:23:18.310Z,30.50
2018-05-08T12:25:45.755Z,31.60
2018-05-08T12:28:13.250Z,30.00
2018-05-08T12:30:40.768Z,31.50
2018-05-08T12:33:09.084Z,30.00
2018-05-08T12:35:36.587Z,30.00
2018-05-08T12:38:27.431Z,33.70
2018-05-08T12:40:54.948Z,31.80
2018-05-08T12:43:23.577Z,30.80
2018-05-08T12:45:51.104Z,29.40
2018-05-08T12:48:18.606Z,27.10
2018-05-08T12:50:46.220Z,26.80
2018-05-08T12:53:13.715Z,28.80
2018-05-08T12:55:41.240Z,28.90
2018-05-08T12:58:08.823Z,31.20
2018-05-08T13:00:36.324Z,29.40
2018-05-08T13:03:04.634Z,32.30
2018-05-08T13:05:32.146Z,32.10
2018-05-08T13:07:59.660Z,31.70
2018-05-08T13:10:27.187Z,28.30
2018-05-08T13:12:54.777Z,28.30
2018-05-08T13:15:22.289Z,29.40
2018-05-08T13:17:49.832Z,30.00
2018-05-08T13:20:17.400Z,29.20
2018-05-08T13:22:49.715Z,32.00
2018-05-08T13:25:18.082Z,29.90
2018-05-08T13:27:45.778Z,29.10
2018-05-08T13:30:13.289Z,32.30
2018-05-08T13:32:40.824Z,33.30
2018-05-08T13:35:11.384Z,36.30
2018-05-08T13:37:39.070Z,35.90
2018-05-08T13:40:06.511Z,35.00
2018-05-08T13:42:34.045Z,32.00
2018-05-08T13:45:01.534Z,31.70
2018-05-08T13:47:29.873Z,35.90
2018-05-08T13:49:57.964Z,35.80
2018-05-08T13:52:25.460Z,33.70
2018-05-08T13:54:53.014Z,35.00
2018-05-08T13:57:20.544Z,31.20
2018-05-08T13:59:48.043Z,30.50
2018-05-08T14:02:15.569Z,33.80
2018-05-08T14:04:43.071Z,33.50
2018-05-08T14:07:10.615Z,31.70
2018-05-08T14:09:38.131Z,34.50
2018-05-08T14:12:05.702Z,32.70
2018-05-08T14:14:33.285Z,31.40
2018-05-08T14:17:00.835Z,31.70
2018-05-08T14:19:28.359Z,30.80
2018-05-08T14:21:56.657Z,36.10
2018-05-08T14:24:24.157Z,35.90
2018-05-08T14:26:51.658Z,35.90
2018-05-08T14:29:19.832Z,37.00
2018-05-08T14:31:47.354Z,39.70
2018-05-08T14:34:14.892Z,40.10
2018-05-08T14:36:42.435Z,42.40
2018-05-08T14:39:09.968Z,43.50
2018-05-08T14:41:37.495Z,42.90
2018-05-08T14:44:05.040Z,42.60
2018-05-08T14:46:32.555Z,42.90
2018-05-08T14:49:00.708Z,43.40
2018-05-08T14:51:28.215Z,45.50
2018-05-08T14:53:55.769Z,43.10
2018-05-08T14:56:23.311Z,44.40
2018-05-08T14:58:50.887Z,44.90
2018-05-08T15:01:19.241Z,46.30
2018-05-08T15:03:46.807Z,46.20
2018-05-08T15:06:15.084Z,43.00
2018-05-08T15:08:45.531Z,43.00
2018-05-08T15:11:13.796Z,42.30
2018-05-08T15:13:41.317Z,42.30
2018-05-08T15:16:08.844Z,43.00
2018-05-08T15:18:37.069Z,46.10
2018-05-08T15:21:04.632Z,43.70
2018-05-08T15:23:32.136Z,45.00
2018-05-08T15:25:59.652Z,44.30
2018-05-08T15:28:27.171Z,45.80
2018-05-08T15:30:54.696Z,45.20
2018-05-08T15:33:23.001Z,46.60
2018-05-08T15:35:51.311Z,45.90
2018-05-08T15:38:18.855Z,45.70
2018-05-08T15:40:47.119Z,47.10
2018-05-08T15:43:14.604Z,47.00
2018-05-08T15:45:42.879Z,47.60
2018-05-08T15:48:10.395Z,47.40
2018-05-08T15:50:37.920Z,46.50
2018-05-08T15:53:05.439Z,46.00
2018-05-08T15:55:32.941Z,47.80
2018-05-08T15:58:00.428Z,47.00
2018-05-08T16:00:27.924Z,46.70
2018-05-08T16:02:56.203Z,46.90
2018-05-08T16:05:23.756Z,46.70
2018-05-08T16:07:51.255Z,47.60
2018-05-08T16:10:19.567Z,47.20
2018-05-08T16:12:47.174Z,47.10
2018-05-08T16:15:15.512Z,46.30
2018-05-08T16:17:43.047Z,46.20
2018-05-08T16:20:10.561Z,46.70
2018-05-08T16:22:38.900Z,48.50
2018-05-08T16:25:06.417Z,48.50
2018-05-08T16:27:33.940Z,48.50
2018-05-08T16:30:01.468Z,47.80
2018-05-08T16:32:28.976Z,48.30
2018-05-08T16:34:56.494Z,49.40
2018-05-08T16:37:24.779Z,50.00
2018-05-08T16:39:52.275Z,50.00
2018-05-08T16:42:19.783Z,50.90
2018-05-08T16:44:47.337Z,52.00
2018-05-08T16:47:14.901Z,51.00
2018-05-08T16:49:42.416Z,52.50
2018-05-08T16:52:15.462Z,52.30
2018-05-08T16:54:42.997Z,53.40
2018-05-08T16:57:10.507Z,53.50
2018-05-08T16:59:38.060Z,53.00
2018-05-08T17:02:05.609Z,53.50
2018-05-08T17:04:33.246Z,53.10
2018-05-08T17:07:00.785Z,54.60
2018-05-08T17:09:28.340Z,54.70
2018-05-08T17:11:56.684Z,54.80
2018-05-08T17:14:25.205Z,54.60
2018-05-08T17:16:52.808Z,55.80
2018-05-08T17:19:21.224Z,54.20
2018-05-08T17:21:48.705Z,54.20
2018-05-08T17:24:16.264Z,56.80
2018-05-08T17:26:43.792Z,55.00
2018-05-08T17:29:12.206Z,55.70
2018-05-08T17:31:39.769Z,57.00
2018-05-08T17:34:08.062Z,55.50
2018-05-08T17:36:36.364Z,56.30
2018-05-08T17:39:03.893Z,56.30
2018-05-08T17:41:31.391Z,56.30
2018-05-08T17:44:17.648Z,56.30
2018-05-08T17:46:45.170Z,56.20
2018-05-08T17:49:13.455Z,56.90
2018-05-08T17:51:42.600Z,56.80
2018-05-08T17:54:10.115Z,57.40
2018-05-08T17:56:37.636Z,57.60
2018-05-08T17:59:05.136Z,58.60
2018-05-08T18:01:32.648Z,58.30
2018-05-08T18:04:00.926Z,59.70
2018-05-08T18:06:28.437Z,59.60
2018-05-08T18:08:55.979Z,60.40
2018-05-08T18:11:31.170Z,60.50
2018-05-08T18:13:58.696Z,60.40
2018-05-08T18:16:43.563Z,61.40
2018-05-08T18:19:12.140Z,61.80
2018-05-08T18:21:40.424Z,64.20
2018-05-08T18:24:07.940Z,64.20
2018-05-08T18:26:36.224Z,65.00
2018-05-08T18:29:04.532Z,66.20
2018-05-08T18:31:32.142Z,66.10
2018-05-08T18:34:01.856Z,66.00
2018-05-08T18:36:33.915Z,66.90
2018-05-08T18:39:01.558Z,68.50
2018-05-08T18:41:33.188Z,69.50
2018-05-08T18:44:00.804Z,69.40
2018-05-08T18:46:31.772Z,70.10
2018-05-08T18:48:59.417Z,71.50
2018-05-08T18:51:26.998Z,72.90
2018-05-08T18:53:55.404Z,73.50
2018-05-08T18:56:23.038Z,75.50
2018-05-08T18:58:51.557Z,75.40
2018-05-08T19:01:19.880Z,76.50
2018-05-08T19:03:47.469Z,76.40
2018-05-08T19:06:16.981Z,78.20
2018-05-08T19:08:44.495Z,79.10
2018-05-08T19:11:17.785Z,78.00
2018-05-08T19:13:52.082Z,77.70
2018-05-08T19:16:20.497Z,78.70
2018-05-08T19:18:53.797Z,78.70
2018-05-08T19:21:21.494Z,78.20
2018-05-08T19:23:54.863Z,79.30
2018-05-08T19:26:22.411Z,79.50
2018-05-08T19:29:01.144Z,80.50
2018-05-08T19:31:28.700Z,80.40
2018-05-08T19:33:56.296Z,81.10
2018-05-08T19:36:29.791Z,82.10
2018-05-08T19:38:58.474Z,83.20
2018-05-08T19:44:20.494Z,87.30
2018-05-08T19:46:48.215Z,86.70
2018-05-08T19:49:16.053Z,88.40
2018-05-08T19:51:43.783Z,90.60
2018-05-08T19:54:11.331Z,91.00
2018-05-08T19:56:38.935Z,91.70
2018-05-08T19:59:06.532Z,92.30
2018-05-08T20:01:34.122Z,92.30
2018-05-08T20:04:02.096Z,93.20
2018-05-08T20:09:29.192Z,94.20
2018-05-08T20:11:56.725Z,94.80
2018-05-08T20:14:24.252Z,94.50
2018-05-08T20:16:52.576Z,94.50
2018-05-08T20:19:20.127Z,95.40
2018-05-08T20:21:48.155Z,96.20
2018-05-08T20:24:16.517Z,97.70
2018-05-08T20:26:44.082Z,97.70
2018-05-08T20:29:12.612Z,97.60
2018-05-08T20:31:40.120Z,97.60
2018-05-08T20:34:07.810Z,97.00
2018-05-08T20:36:35.365Z,96.80
2018-05-08T20:39:02.856Z,95.80
2018-05-08T20:41:30.385Z,95.10
2018-05-08T20:43:57.906Z,94.10
2018-05-08T20:46:25.432Z,93.30
2018-05-08T20:48:53.772Z,92.60
2018-05-08T20:51:21.335Z,92.50
2018-05-08T20:53:48.869Z,92.20
2018-05-08T20:56:16.479Z,91.80
2018-05-08T20:58:43.987Z,91.70
2018-05-08T21:01:11.599Z,91.40
2018-05-08T21:03:39.004Z,91.40
2018-05-08T21:06:07.291Z,91.20
2018-05-08T21:08:34.779Z,90.90
2018-05-08T21:11:02.295Z,91.10
2018-05-08T21:13:29.893Z,90.90
2018-05-08T21:15:57.592Z,91.00
2018-05-08T21:18:25.129Z,90.90
2018-05-08T21:20:52.647Z,91.20
2018-05-08T21:23:20.179Z,91.30
2018-05-08T21:25:47.699Z,91.20
2018-05-08T21:28:21.583Z,90.90
2018-05-08T21:30:54.875Z,90.90
2018-05-08T21:33:22.348Z,91.00
2018-05-08T21:35:50.619Z,91.10
2018-05-08T21:38:18.137Z,91.20
2018-05-08T21:40:45.631Z,91.20
2018-05-08T21:43:13.919Z,91.70
2018-05-08T21:45:42.425Z,91.90
2018-05-08T21:48:10.708Z,91.90
2018-05-08T21:50:39.060Z,92.10
2018-05-08T21:53:06.576Z,92.10
2018-05-08T21:55:34.112Z,92.30
2018-05-08T21:58:01.620Z,92.60
2018-05-08T22:00:29.139Z,92.70
2018-05-08T22:02:56.661Z,92.90
2018-05-08T22:05:24.151Z,93.00
2018-05-08T22:07:51.684Z,93.10
2018-05-08T22:10:19.940Z,93.30
2018-05-08T22:12:47.714Z,93.30
2018-05-08T22:15:15.229Z,93.50
2018-05-08T22:17:43.512Z,93.60
2018-05-08T22:20:11.895Z,93.80
2018-05-08T22:22:40.091Z,94.00
2018-05-08T22:25:08.419Z,94.00
2018-05-08T22:27:35.919Z,94.00
2018-05-08T22:30:03.436Z,94.20
2018-05-08T22:32:30.958Z,94.20
2018-05-08T22:34:58.487Z,94.60
2018-05-08T22:37:25.980Z,94.70
2018-05-08T22:39:53.490Z,94.80
2018-05-08T22:42:21.776Z,95.10
2018-05-08T22:44:49.280Z,94.80
2018-05-08T22:47:16.796Z,95.10
2018-05-08T22:49:44.334Z,95.00
2018-05-08T22:52:11.851Z,95.20
2018-05-08T22:54:39.352Z,95.20
2018-05-08T22:57:06.859Z,95.30
2018-05-08T22:59:34.377Z,95.30
2018-05-08T23:02:02.676Z,95.20
2018-05-08T23:04:30.931Z,95.30
2018-05-08T23:06:58.475Z,95.20
2018-05-08T23:09:25.982Z,95.40
2018-05-08T23:11:53.483Z,95.30
2018-05-08T23:14:21.779Z,95.60
2018-05-08T23:16:49.290Z,95.60
2018-05-08T23:19:17.791Z,96.00
2018-05-08T23:21:45.283Z,95.90
2018-05-08T23:24:12.788Z,96.20
2018-05-08T23:26:40.307Z,96.50
2018-05-08T23:29:07.827Z,96.40
2018-05-08T23:31:35.381Z,96.70
2018-05-08T23:34:03.673Z,97.60
2018-05-08T23:36:31.946Z,98.10
2018-05-08T23:38:59.455Z,98.10
2018-05-08T23:41:26.952Z,98.40
2018-05-08T23:43:54.471Z,98.30
2018-05-08T23:46:21.979Z,98.50
2018-05-08T23:48:49.504Z,98.70
2018-05-08T23:51:18.736Z,98.70
2018-05-08T23:53:46.258Z,98.70
2018-05-08T23:56:13.803Z,98.90
2018-05-08T23:58:41.316Z,98.90
